createdAt,value
2018-11-10T00:02:26.735Z,3.10
2018-11-10T00:04:55.209Z,2.57
2018-11-10T00:07:23.674Z,2.67
2018-11-10T00:09:52.136Z,2.60
2018-11-10T00:12:20.572Z,3.23
2018-11-10T00:14:49.030Z,2.57
2018-11-10T00:17:17.500Z,2.60
2018-11-10T00:19:45.949Z,2.80
2018-11-10T00:22:14.446Z,2.90
2018-11-10T00:24:42.883Z,3.00
2018-11-10T00:27:11.305Z,2.53
2018-11-10T00:29:39.778Z,2.40
2018-11-10T00:32:08.219Z,2.40
2018-11-10T00:34:36.709Z,2.83
2018-11-10T00:37:05.516Z,2.60
2018-11-10T00:39:33.970Z,2.63
2018-11-10T00:42:02.446Z,2.23
2018-11-10T00:44:30.997Z,2.47
2018-11-10T00:46:59.467Z,2.60
2018-11-10T00:49:27.923Z,2.13
2018-11-10T00:51:56.385Z,2.60
2018-11-10T00:54:24.896Z,2.50
2018-11-10T00:56:53.373Z,2.47
2018-11-10T00:59:22.082Z,2.23
2018-11-10T01:01:50.524Z,2.20
2018-11-10T01:04:19.009Z,2.47
2018-11-10T01:06:47.472Z,2.40
2018-11-10T01:09:15.958Z,2.60
2018-11-10T01:11:44.421Z,2.33
2018-11-10T01:14:12.893Z,2.30
2018-11-10T01:16:41.334Z,2.30
2018-11-10T01:19:09.772Z,2.20
2018-11-10T01:21:38.236Z,2.30
2018-11-10T01:24:06.692Z,2.20
2018-11-10T01:26:35.144Z,2.20
2018-11-10T01:29:03.607Z,1.90
2018-11-10T01:31:32.055Z,1.90
2018-11-10T01:34:00.492Z,2.23
2018-11-10T01:36:28.970Z,2.57
2018-11-10T01:38:57.415Z,2.07
2018-11-10T01:41:25.984Z,2.30
2018-11-10T01:43:54.449Z,2.10
2018-11-10T01:46:22.901Z,2.20
2018-11-10T01:48:51.357Z,2.33
2018-11-10T01:51:23.073Z,2.20
2018-11-10T01:53:51.636Z,1.90
2018-11-10T01:56:20.097Z,2.37
2018-11-10T01:58:48.808Z,2.30
2018-11-10T02:01:20.598Z,2.30
2018-11-10T02:03:49.081Z,1.73
2018-11-10T02:06:17.540Z,1.80
2018-11-10T02:08:45.996Z,1.67
2018-11-10T02:11:14.593Z,2.07
2018-11-10T02:13:43.261Z,2.33
2018-11-10T02:16:11.753Z,2.30
2018-11-10T02:18:40.220Z,1.90
2018-11-10T02:21:08.692Z,1.83
2018-11-10T02:23:37.160Z,2.30
2018-11-10T02:26:05.660Z,2.00
2018-11-10T02:28:34.138Z,2.40
2018-11-10T02:31:02.609Z,2.20
2018-11-10T02:33:31.085Z,2.03
2018-11-10T02:35:59.589Z,1.87
2018-11-10T02:38:28.084Z,2.07
2018-11-10T02:40:56.545Z,2.00
2018-11-10T02:43:25.013Z,2.17
2018-11-10T02:45:53.458Z,2.13
2018-11-10T02:48:21.964Z,1.87
2018-11-10T02:50:50.428Z,2.07
2018-11-10T02:53:18.863Z,1.90
2018-11-10T02:55:47.367Z,1.90
2018-11-10T02:58:15.825Z,1.77
2018-11-10T03:00:44.292Z,2.10
2018-11-10T03:03:16.199Z,1.70
2018-11-10T03:05:44.690Z,2.00
2018-11-10T03:08:13.149Z,1.90
2018-11-10T03:10:41.705Z,1.80
2018-11-10T03:13:10.132Z,1.60
2018-11-10T03:15:38.577Z,1.90
2018-11-10T03:18:07.051Z,1.77
2018-11-10T03:20:35.512Z,1.90
2018-11-10T03:23:03.974Z,2.57
2018-11-10T03:25:32.448Z,2.07
2018-11-10T03:28:00.896Z,1.80
2018-11-10T03:30:29.376Z,1.60
2018-11-10T03:32:57.830Z,1.70
2018-11-10T03:35:26.273Z,1.77
2018-11-10T03:37:54.715Z,1.70
2018-11-10T03:40:23.181Z,1.80
2018-11-10T03:42:51.648Z,1.50
2018-11-10T03:45:20.086Z,1.50
2018-11-10T03:47:48.561Z,1.63
2018-11-10T03:50:17.013Z,1.47
2018-11-10T03:52:45.451Z,2.17
2018-11-10T03:55:13.914Z,1.90
2018-11-10T03:57:42.368Z,1.60
2018-11-10T04:00:13.366Z,1.87
2018-11-10T04:02:43.394Z,1.60
2018-11-10T04:05:14.586Z,1.57
2018-11-10T04:07:44.166Z,1.70
2018-11-10T04:10:13.227Z,1.73
2018-11-10T04:12:41.686Z,1.50
2018-11-10T04:15:10.197Z,1.50
2018-11-10T04:17:38.743Z,1.40
2018-11-10T04:20:08.195Z,1.70
2018-11-10T04:22:37.721Z,1.60
2018-11-10T04:25:08.797Z,1.57
2018-11-10T04:27:37.253Z,1.73
2018-11-10T04:30:07.188Z,1.73
2018-11-10T04:32:36.327Z,1.67
2018-11-10T04:35:05.220Z,1.70
2018-11-10T04:37:33.668Z,1.70
2018-11-10T04:40:02.113Z,1.43
2018-11-10T04:42:30.543Z,1.57
2018-11-10T04:44:59.011Z,1.60
2018-11-10T04:47:27.464Z,2.23
2018-11-10T04:49:56.023Z,1.60
2018-11-10T04:52:24.442Z,1.57
2018-11-10T04:54:52.893Z,1.80
2018-11-10T04:57:21.381Z,1.57
2018-11-10T04:59:49.914Z,1.50
2018-11-10T05:02:22.222Z,1.57
2018-11-10T05:04:50.676Z,1.67
2018-11-10T05:07:22.845Z,1.30
2018-11-10T05:09:51.301Z,1.37
2018-11-10T05:12:19.768Z,1.50
2018-11-10T05:14:48.228Z,1.63
2018-11-10T05:17:16.684Z,1.50
2018-11-10T05:19:45.126Z,1.57
2018-11-10T05:22:13.605Z,1.50
2018-11-10T05:24:42.050Z,1.37
2018-11-10T05:27:10.485Z,1.43
2018-11-10T05:29:39.000Z,1.40
2018-11-10T05:32:07.484Z,1.40
2018-11-10T05:34:35.966Z,1.40
2018-11-10T05:37:04.781Z,2.30
2018-11-10T05:39:33.237Z,1.43
2018-11-10T05:42:01.724Z,1.40
2018-11-10T05:44:30.218Z,1.60
2018-11-10T05:46:58.817Z,1.63
2018-11-10T05:49:27.255Z,1.40
2018-11-10T05:51:55.743Z,1.40
2018-11-10T05:54:24.194Z,1.40
2018-11-10T05:56:52.649Z,2.03
2018-11-10T05:59:21.138Z,1.20
2018-11-10T06:01:49.585Z,1.60
2018-11-10T06:04:18.034Z,2.30
2018-11-10T06:06:46.589Z,3.43
2018-11-10T06:09:18.838Z,3.07
2018-11-10T06:11:47.309Z,1.33
2018-11-10T06:14:15.740Z,1.77
2018-11-10T06:16:44.206Z,3.73
2018-11-10T06:19:12.659Z,2.23
2018-11-10T06:21:41.121Z,3.33
2018-11-10T06:24:09.567Z,3.17
2018-11-10T06:26:38.037Z,3.50
2018-11-10T06:29:06.477Z,1.53
2018-11-10T06:31:34.925Z,3.40
2018-11-10T06:34:03.399Z,3.47
2018-11-10T06:36:31.840Z,2.17
2018-11-10T06:39:00.338Z,4.77
2018-11-10T06:41:28.859Z,3.23
2018-11-10T06:44:00.781Z,3.07
2018-11-10T06:46:29.210Z,5.93
2018-11-10T06:48:57.641Z,3.77
2018-11-10T06:51:26.225Z,4.50
2018-11-10T06:53:54.799Z,2.40
2018-11-10T06:56:23.160Z,5.13
2018-11-10T06:58:51.518Z,5.23
2018-11-10T07:01:20.104Z,4.40
2018-11-10T07:03:48.481Z,4.33
2018-11-10T07:06:16.857Z,2.67
2018-11-10T07:08:45.254Z,2.53
2018-11-10T07:11:17.219Z,3.83
2018-11-10T07:13:45.594Z,6.17
2018-11-10T07:16:14.057Z,5.27
2018-11-10T07:18:42.492Z,2.87
2018-11-10T07:21:10.969Z,2.63
2018-11-10T07:23:39.556Z,2.20
2018-11-10T07:26:07.999Z,4.50
2018-11-10T07:28:36.449Z,4.80
2018-11-10T07:31:05.041Z,2.77
2018-11-10T07:33:33.478Z,4.00
2018-11-10T07:36:01.933Z,3.77
2018-11-10T07:38:30.398Z,4.97
2018-11-10T07:40:58.818Z,2.97
2018-11-10T07:43:27.294Z,5.37
2018-11-10T07:45:55.761Z,2.80
2018-11-10T07:48:24.185Z,2.17
2018-11-10T07:50:52.605Z,3.97
2018-11-10T07:53:21.165Z,2.30
2018-11-10T07:55:49.719Z,2.87
2018-11-10T07:58:18.109Z,4.13
2018-11-10T08:00:46.581Z,2.47
2018-11-10T08:03:15.030Z,2.80
2018-11-10T08:05:43.448Z,2.27
2018-11-10T08:08:11.908Z,3.57
2018-11-10T08:10:40.370Z,4.03
2018-11-10T08:13:10.906Z,2.33
2018-11-10T08:15:39.357Z,3.00
2018-11-10T08:18:07.812Z,3.87
2018-11-10T08:20:36.252Z,2.97
2018-11-10T08:23:04.853Z,2.73
2018-11-10T08:25:33.381Z,1.70
2018-11-10T08:28:01.834Z,5.53
2018-11-10T08:30:30.294Z,2.60
2018-11-10T08:32:58.777Z,3.63
2018-11-10T08:35:27.226Z,3.40
2018-11-10T08:37:55.717Z,2.53
2018-11-10T08:40:24.177Z,2.37
2018-11-10T08:42:52.661Z,2.80
2018-11-10T08:45:21.200Z,3.17
2018-11-10T08:47:49.672Z,3.93
2018-11-10T08:50:18.152Z,4.77
2018-11-10T08:52:46.643Z,4.70
2018-11-10T08:55:15.109Z,2.67
2018-11-10T08:57:44.373Z,5.43
2018-11-10T09:00:13.325Z,2.70
2018-11-10T09:02:42.161Z,2.60
2018-11-10T09:05:11.635Z,2.07
2018-11-10T09:07:40.414Z,3.50
2018-11-10T09:10:10.520Z,3.80
2018-11-10T09:12:38.971Z,3.10
2018-11-10T09:15:09.701Z,3.53
2018-11-10T09:17:38.216Z,2.83
2018-11-10T09:20:08.950Z,3.53
2018-11-10T09:22:37.443Z,2.70
2018-11-10T09:25:07.589Z,3.10
2018-11-10T09:27:36.024Z,2.63
2018-11-10T09:30:04.558Z,3.60
2018-11-10T09:32:33.289Z,2.30
2018-11-10T09:35:01.733Z,2.27
2018-11-10T09:37:30.215Z,2.33
2018-11-10T09:39:58.682Z,4.17
2018-11-10T09:42:27.348Z,5.13
2018-11-10T09:44:55.767Z,3.97
2018-11-10T09:47:24.231Z,4.10
2018-11-10T09:49:52.764Z,2.50
2018-11-10T09:52:21.153Z,3.73
2018-11-10T09:54:49.593Z,2.53
2018-11-10T09:57:18.090Z,2.07
2018-11-10T09:59:46.588Z,2.33
2018-11-10T10:02:15.330Z,3.07
2018-11-10T10:04:43.484Z,5.67
2018-11-10T10:07:11.992Z,3.53
2018-11-10T10:09:40.582Z,2.70
2018-11-10T10:12:09.048Z,2.47
2018-11-10T10:14:37.574Z,1.90
2018-11-10T10:17:08.204Z,3.37
2018-11-10T10:19:36.661Z,2.67
2018-11-10T10:22:05.540Z,2.50
2018-11-10T10:24:33.991Z,2.93
2018-11-10T10:27:02.473Z,2.37
2018-11-10T10:29:30.961Z,5.03
2018-11-10T10:31:59.600Z,2.40
2018-11-10T10:34:28.101Z,3.30
2018-11-10T10:36:56.575Z,3.70
2018-11-10T10:39:25.050Z,5.13
2018-11-10T10:41:53.502Z,2.57
2018-11-10T10:44:21.959Z,2.80
2018-11-10T10:46:50.426Z,3.93
2018-11-10T10:49:18.982Z,5.00
2018-11-10T10:51:47.428Z,3.90
2018-11-10T10:54:15.897Z,4.97
2018-11-10T10:56:44.446Z,2.93
2018-11-10T10:59:12.979Z,3.03
2018-11-10T11:01:46.774Z,2.50
2018-11-10T11:04:20.481Z,2.90
2018-11-10T11:06:49.241Z,4.67
2018-11-10T11:09:18.070Z,2.43
2018-11-10T11:11:46.618Z,2.93
2018-11-10T11:14:15.099Z,4.10
2018-11-10T11:16:43.724Z,2.97
2018-11-10T11:19:15.855Z,2.30
2018-11-10T11:21:44.357Z,3.13
2018-11-10T11:24:12.825Z,3.87
2018-11-10T11:26:41.386Z,2.83
2018-11-10T11:29:09.914Z,5.33
2018-11-10T11:31:38.377Z,4.83
2018-11-10T11:34:06.865Z,3.50
2018-11-10T11:36:35.318Z,6.13
2018-11-10T11:39:04.396Z,2.80
2018-11-10T11:41:33.024Z,2.23
2018-11-10T11:44:01.396Z,4.00
2018-11-10T11:46:29.864Z,2.67
2018-11-10T11:48:58.407Z,1.97
2018-11-10T11:51:26.860Z,3.47
2018-11-10T11:53:55.313Z,2.20
2018-11-10T11:56:23.818Z,5.33
2018-11-10T11:58:52.252Z,2.93
2018-11-10T12:01:20.709Z,3.67
2018-11-10T12:03:49.200Z,2.50
2018-11-10T12:06:17.771Z,2.60
2018-11-10T12:08:46.208Z,2.10
2018-11-10T12:11:14.669Z,3.27
2018-11-10T12:13:43.978Z,3.10
2018-11-10T12:16:12.429Z,2.50
2018-11-10T12:18:40.906Z,2.30
2018-11-10T12:21:09.476Z,4.63
2018-11-10T12:23:37.975Z,2.67
2018-11-10T12:26:06.623Z,2.77
2018-11-10T12:28:35.105Z,2.93
2018-11-10T12:31:03.597Z,4.83
2018-11-10T12:33:32.070Z,2.47
2018-11-10T12:36:00.614Z,3.10
2018-11-10T12:38:29.119Z,1.90
2018-11-10T12:40:57.620Z,2.80
2018-11-10T12:43:26.140Z,3.17
2018-11-10T12:45:54.580Z,2.63
2018-11-10T12:48:23.101Z,2.67
2018-11-10T12:50:51.618Z,3.20
2018-11-10T12:53:20.110Z,3.83
2018-11-10T12:55:48.618Z,3.23
2018-11-10T12:58:19.336Z,1.77
2018-11-10T13:00:47.955Z,3.73
2018-11-10T13:03:19.719Z,2.07
2018-11-10T13:05:48.205Z,2.90
2018-11-10T13:08:16.771Z,2.50
2018-11-10T13:10:45.287Z,2.93
2018-11-10T13:13:13.741Z,3.03
2018-11-10T13:15:42.204Z,3.97
2018-11-10T13:18:10.681Z,2.33
2018-11-10T13:20:42.853Z,4.77
2018-11-10T13:23:12.117Z,2.30
2018-11-10T13:25:40.696Z,2.60
2018-11-10T13:28:09.126Z,2.13
2018-11-10T13:30:37.712Z,6.37
2018-11-10T13:33:06.474Z,4.87
2018-11-10T13:35:34.917Z,3.07
2018-11-10T13:38:03.477Z,4.43
2018-11-10T13:40:31.896Z,4.63
2018-11-10T13:43:00.342Z,3.80
2018-11-10T13:45:28.945Z,4.17
2018-11-10T13:47:57.527Z,2.43
2018-11-10T13:50:25.971Z,2.23
2018-11-10T13:52:55.448Z,2.03
2018-11-10T13:55:23.532Z,2.13
2018-11-10T13:57:51.984Z,2.90
2018-11-10T14:00:20.784Z,2.70
2018-11-10T14:02:49.233Z,3.33
2018-11-10T14:05:17.722Z,1.73
2018-11-10T14:07:47.215Z,3.30
2018-11-10T14:10:16.278Z,3.00
2018-11-10T14:12:45.745Z,3.70
2018-11-10T14:15:14.182Z,3.97
2018-11-10T14:17:43.131Z,4.60
2018-11-10T14:20:13.215Z,3.45
2018-11-10T14:22:41.666Z,4.60
2018-11-10T14:25:11.744Z,2.73
2018-11-10T14:27:40.927Z,3.07
2018-11-10T14:30:11.841Z,4.13
2018-11-10T14:32:40.888Z,3.73
2018-11-10T14:35:10.189Z,4.27
2018-11-10T14:37:38.699Z,3.07
2018-11-10T14:40:08.930Z,3.20
2018-11-10T14:42:37.706Z,4.27
2018-11-10T14:45:07.528Z,3.77
2018-11-10T14:47:35.979Z,2.00
2018-11-10T14:50:05.416Z,3.00
2018-11-10T14:52:34.057Z,3.87
2018-11-10T14:55:02.509Z,4.30
2018-11-10T14:57:30.891Z,5.43
2018-11-10T14:59:59.317Z,2.37
2018-11-10T15:02:27.721Z,3.50
2018-11-10T15:04:56.090Z,3.20
2018-11-10T15:07:24.622Z,3.03
2018-11-10T15:09:53.091Z,3.40
2018-11-10T15:12:21.531Z,2.17
2018-11-10T15:14:50.160Z,5.93
2018-11-10T15:17:18.626Z,3.43
2018-11-10T15:19:47.117Z,2.27
2018-11-10T15:22:15.652Z,2.33
2018-11-10T15:24:44.183Z,3.33
2018-11-10T15:27:19.628Z,2.80
2018-11-10T15:29:48.045Z,1.63
2018-11-10T15:32:16.463Z,2.20
2018-11-10T15:34:44.912Z,2.77
2018-11-10T15:37:13.397Z,1.90
2018-11-10T15:39:41.881Z,4.57
2018-11-10T15:42:10.360Z,2.47
2018-11-10T15:44:38.820Z,3.10
2018-11-10T15:47:07.260Z,2.93
2018-11-10T15:49:35.721Z,2.50
2018-11-10T15:52:04.323Z,4.17
2018-11-10T15:54:32.760Z,2.17
2018-11-10T15:57:01.359Z,1.63
2018-11-10T15:59:29.945Z,2.77
2018-11-10T16:01:58.426Z,3.30
2018-11-10T16:04:26.926Z,2.47
2018-11-10T16:06:55.519Z,2.50
2018-11-10T16:09:24.001Z,3.53
2018-11-10T16:11:52.513Z,1.93
2018-11-10T16:14:21.076Z,3.60
2018-11-10T16:16:49.541Z,3.03
2018-11-10T16:19:18.016Z,2.63
2018-11-10T16:21:46.500Z,1.70
2018-11-10T16:24:14.949Z,4.00
2018-11-10T16:26:43.388Z,2.50
2018-11-10T16:29:15.732Z,1.73
2018-11-10T16:31:44.198Z,1.93
2018-11-10T16:34:12.637Z,2.70
2018-11-10T16:36:41.117Z,3.30
2018-11-10T16:39:10.037Z,2.17
2018-11-10T16:41:39.501Z,1.83
2018-11-10T16:44:08.184Z,2.23
2018-11-10T16:46:36.677Z,2.93
2018-11-10T16:49:05.353Z,4.67
2018-11-10T16:51:33.846Z,14.90
2018-11-10T16:54:02.456Z,36.97
2018-11-10T16:56:31.066Z,50.03
2018-11-10T16:58:59.636Z,54.73
2018-11-10T17:01:28.108Z,63.87
2018-11-10T17:03:56.621Z,63.37
2018-11-10T17:06:25.165Z,60.80
2018-11-10T17:08:53.757Z,62.10
2018-11-10T17:11:22.186Z,56.87
2018-11-10T17:13:50.682Z,60.70
2018-11-10T17:16:19.177Z,57.47
2018-11-10T17:18:51.277Z,55.00
2018-11-10T17:21:19.753Z,50.13
2018-11-10T17:23:48.242Z,45.73
2018-11-10T17:26:16.868Z,53.07
2018-11-10T17:28:45.341Z,51.83
2018-11-10T17:31:17.172Z,59.03
2018-11-10T17:33:45.668Z,49.83
2018-11-10T17:36:14.150Z,51.57
2018-11-10T17:38:42.661Z,56.47
2018-11-10T17:41:11.176Z,50.83
2018-11-10T17:43:39.641Z,53.50
2018-11-10T17:46:08.135Z,53.30
2018-11-10T17:48:36.613Z,54.53
2018-11-10T17:51:05.438Z,49.70
2018-11-10T17:53:34.016Z,50.10
2018-11-10T17:56:02.698Z,42.97
2018-11-10T17:58:31.521Z,46.87
2018-11-10T18:01:00.039Z,48.53
2018-11-10T18:03:28.669Z,44.07
2018-11-10T18:05:57.329Z,51.30
2018-11-10T18:08:25.966Z,38.37
2018-11-10T18:10:54.800Z,40.93
2018-11-10T18:13:23.282Z,40.17
2018-11-10T18:15:51.966Z,42.30
2018-11-10T18:18:20.685Z,37.60
2018-11-10T18:20:49.325Z,41.17
2018-11-10T18:23:17.815Z,43.93
2018-11-10T18:25:50.032Z,33.57
2018-11-10T18:28:18.830Z,35.70
2018-11-10T18:30:47.386Z,33.53
2018-11-10T18:33:21.371Z,35.13
2018-11-10T18:35:49.906Z,36.83
2018-11-10T18:38:18.465Z,36.50
2018-11-10T18:40:46.911Z,40.33
2018-11-10T18:43:15.353Z,32.83
2018-11-10T18:45:43.796Z,34.97
2018-11-10T18:48:12.260Z,34.50
2018-11-10T18:50:40.795Z,30.20
2018-11-10T18:53:09.301Z,30.90
2018-11-10T18:55:37.888Z,30.60
2018-11-10T18:58:06.535Z,31.23
2018-11-10T19:00:35.311Z,29.57
2018-11-10T19:03:03.887Z,25.87
2018-11-10T19:05:32.377Z,29.20
2018-11-10T19:08:00.927Z,28.17
2018-11-10T19:10:29.412Z,27.63
2018-11-10T19:12:58.165Z,29.00
2018-11-10T19:15:26.586Z,26.40
2018-11-10T19:17:55.077Z,31.67
2018-11-10T19:20:23.516Z,24.87
2018-11-10T19:22:52.129Z,25.83
2018-11-10T19:25:20.680Z,27.57
2018-11-10T19:27:49.176Z,20.60
2018-11-10T19:30:20.134Z,26.33
2018-11-10T19:32:49.541Z,26.27
2018-11-10T19:35:18.717Z,28.07
2018-11-10T19:37:47.333Z,21.87
2018-11-10T19:40:15.805Z,23.03
2018-11-10T19:42:45.306Z,22.23
2018-11-10T19:45:13.997Z,20.87
2018-11-10T19:47:43.623Z,26.83
2018-11-10T19:50:12.886Z,22.73
2018-11-10T19:52:41.344Z,23.83
2018-11-10T19:55:12.046Z,20.93
2018-11-10T19:57:40.655Z,25.00
2018-11-10T20:00:16.629Z,23.97
2018-11-10T20:02:45.711Z,20.60
2018-11-10T20:05:14.199Z,21.77
2018-11-10T20:07:42.694Z,21.60
2018-11-10T20:10:12.046Z,18.43
2018-11-10T20:12:40.937Z,20.57
2018-11-10T20:15:10.840Z,21.70
2018-11-10T20:17:40.043Z,19.50
2018-11-10T20:20:09.287Z,19.07
2018-11-10T20:22:37.768Z,18.97
2018-11-10T20:25:07.755Z,18.23
2018-11-10T20:27:36.145Z,16.47
2018-11-10T20:30:06.152Z,18.87
2018-11-10T20:32:34.864Z,18.20
2018-11-10T20:35:03.829Z,17.40
2018-11-10T20:37:36.304Z,19.27
2018-11-10T20:40:06.097Z,18.20
2018-11-10T20:42:34.612Z,14.50
2018-11-10T20:45:03.146Z,16.37
2018-11-10T20:47:32.032Z,17.80
2018-11-10T20:50:00.653Z,20.97
2018-11-10T20:52:29.575Z,15.90
2018-11-10T20:54:58.209Z,15.83
2018-11-10T20:57:26.661Z,17.17
2018-11-10T20:59:55.188Z,16.57
2018-11-10T21:02:23.752Z,16.57
2018-11-10T21:04:52.197Z,18.07
2018-11-10T21:07:20.665Z,17.63
2018-11-10T21:09:49.442Z,15.30
2018-11-10T21:12:17.883Z,15.07
2018-11-10T21:14:46.356Z,16.27
2018-11-10T21:17:14.838Z,13.97
2018-11-10T21:19:43.273Z,15.93
2018-11-10T21:22:13.391Z,15.03
2018-11-10T21:24:42.267Z,15.73
2018-11-10T21:27:10.730Z,14.30
2018-11-10T21:29:39.502Z,12.50
2018-11-10T21:32:08.304Z,14.87
2018-11-10T21:34:36.935Z,14.93
2018-11-10T21:37:05.926Z,13.63
2018-11-10T21:39:39.996Z,10.90
2018-11-10T21:42:08.476Z,14.03
2018-11-10T21:44:36.914Z,14.63
2018-11-10T21:47:05.590Z,13.50
2018-11-10T21:49:34.145Z,13.37
2018-11-10T21:52:02.539Z,13.20
2018-11-10T21:54:31.010Z,10.47
2018-11-10T21:56:59.461Z,14.20
2018-11-10T21:59:27.883Z,11.30
2018-11-10T22:01:56.370Z,12.53
2018-11-10T22:04:24.895Z,9.63
2018-11-10T22:06:53.362Z,11.53
2018-11-10T22:09:21.910Z,13.80
2018-11-10T22:11:50.310Z,10.43
2018-11-10T22:14:18.806Z,13.83
2018-11-10T22:16:47.283Z,10.13
2018-11-10T22:19:15.793Z,12.17
2018-11-10T22:21:44.252Z,12.27
2018-11-10T22:24:12.718Z,10.77
2018-11-10T22:26:41.231Z,12.00
2018-11-10T22:29:09.667Z,9.67
2018-11-10T22:31:38.141Z,9.83
2018-11-10T22:34:06.612Z,9.20
2018-11-10T22:36:35.233Z,9.97
2018-11-10T22:39:04.613Z,10.23
2018-11-10T22:41:38.961Z,10.33
2018-11-10T22:44:07.441Z,8.70
2018-11-10T22:46:35.898Z,10.40
2018-11-10T22:49:04.391Z,10.13
2018-11-10T22:51:32.870Z,10.57
2018-11-10T22:54:01.333Z,10.70
2018-11-10T22:56:29.804Z,7.67
2018-11-10T22:58:58.242Z,9.70
2018-11-10T23:01:32.664Z,9.00
2018-11-10T23:04:01.361Z,7.97
2018-11-10T23:06:29.842Z,10.17
2018-11-10T23:08:58.326Z,11.33
2018-11-10T23:11:27.013Z,9.27
2018-11-10T23:13:55.460Z,8.20
2018-11-10T23:16:24.004Z,7.50
2018-11-10T23:18:52.475Z,10.00
2018-11-10T23:21:20.904Z,6.97
2018-11-10T23:23:49.308Z,8.30
2018-11-10T23:26:17.886Z,9.87
2018-11-10T23:28:46.317Z,6.63
2018-11-10T23:31:14.769Z,7.70
2018-11-10T23:33:43.200Z,9.00
2018-11-10T23:36:11.924Z,8.63
2018-11-10T23:38:40.426Z,8.93
2018-11-10T23:41:08.889Z,9.70
2018-11-10T23:43:37.605Z,7.80
2018-11-10T23:46:06.054Z,9.40
2018-11-10T23:48:34.472Z,9.13
2018-11-10T23:51:02.929Z,7.77
2018-11-10T23:53:31.392Z,6.67
2018-11-10T23:55:59.828Z,7.53
2018-11-10T23:58:28.289Z,6.77
